Terminal Aerodrome Forecast
Issued by NWS Grand Rapids, MI

Current Version | Previous Version | Text Only | Print | Product List | Glossary On
Versions: 1 2 3 4 5 6 7 8 9 10 11 12
000
FTUS43 KGRR 231120
TAFGRR
TAF
KGRR 231120Z 2312/2412 VRB03KT P6SM SKC
     FM231500 23010KT P6SM SCT150
     FM240000 17004KT P6SM SCT100=

USA.gov is the U.S. government's official web portal to all federal, state and local government web resources and services.